Time;durP1;ratioP1;P1;durP2;ratioP2;P2;SDS_P1;SDS_P2;PMS_P1;PMS_P2;Temp;Humidity;BMP_temperature;BMP_pressure;BME280_temperature;BME280_humidity;BME280_pressure;Samples;Min_cycle;Max_cycle;Signal;HPM_P1;HPM_P2
2023/05/03 00:00:09;;;;;;;9.00;5.82;;;;;;;;;;5112507;28;20407;-61
2023/05/03 00:02:38;;;;;;;9.23;5.70;;;;;;;;;;5108180;28;20493;-62
2023/05/03 00:05:08;;;;;;;9.13;5.53;;;;;;;;;;5108048;28;20020;-61
2023/05/03 00:07:35;;;;;;;9.60;5.78;;;;;;;;;;5107861;28;20115;-61
2023/05/03 00:10:02;;;;;;;6.63;5.15;;;;;;;;;;5107536;28;20028;-62
2023/05/03 00:12:28;;;;;;;6.72;4.78;;;;;;;;;;5113262;28;20508;-61
2023/05/03 00:14:55;;;;;;;9.95;6.20;;;;;;;;;;5112621;28;20022;-62
2023/05/03 00:17:22;;;;;;;11.18;6.05;;;;;;;;;;5113133;28;20153;-62
2023/05/03 00:19:49;;;;;;;7.85;5.53;;;;;;;;;;5112833;28;20625;-62
2023/05/03 00:22:15;;;;;;;8.98;5.72;;;;;;;;;;5112852;28;20026;-61
2023/05/03 00:24:42;;;;;;;4.25;3.50;;;;;;;;;;5107791;28;20024;-61
2023/05/03 00:27:09;;;;;;;8.15;6.15;;;;;;;;;;5108058;28;20032;-61
2023/05/03 00:29:35;;;;;;;4.93;4.13;;;;;;;;;;5107755;28;20478;-61
2023/05/03 00:32:03;;;;;;;27.13;5.72;;;;;;;;;;5107862;28;20506;-61
2023/05/03 00:34:30;;;;;;;6.97;4.90;;;;;;;;;;5111775;28;20026;-61
2023/05/03 00:36:56;;;;;;;8.63;4.95;;;;;;;;;;5112849;28;20024;-61
2023/05/03 00:39:23;;;;;;;9.35;6.50;;;;;;;;;;5112567;28;20023;-61
2023/05/03 00:41:56;;;;;;;11.23;6.07;;;;;;;;;;5112589;28;20044;-61
2023/05/03 00:44:23;;;;;;;10.77;7.10;;;;;;;;;;5112495;28;20398;-61
2023/05/03 00:46:51;;;;;;;12.40;6.95;;;;;;;;;;5107907;28;20077;-61
2023/05/03 00:49:19;;;;;;;10.52;5.53;;;;;;;;;;5107398;28;20035;-61
2023/05/03 00:51:45;;;;;;;9.60;5.38;;;;;;;;;;5107178;28;20023;-61
2023/05/03 00:54:12;;;;;;;8.20;4.60;;;;;;;;;;5107642;28;20053;-61
2023/05/03 00:56:40;;;;;;;4.47;3.05;;;;;;;;;;5111224;28;20051;-61
2023/05/03 00:59:06;;;;;;;12.77;5.68;;;;;;;;;;5112683;28;20063;-60
2023/05/03 01:01:33;;;;;;;7.25;5.50;;;;;;;;;;5112655;28;20381;-61
2023/05/03 01:04:03;;;;;;;11.25;6.60;;;;;;;;;;5112541;28;20031;-61
2023/05/03 01:06:43;;;;;;;12.80;6.10;;;;;;;;;;5112645;28;20080;-61
2023/05/03 01:09:21;;;;;;;10.88;6.70;;;;;;;;;;5107720;28;20042;-61
2023/05/03 01:11:55;;;;;;;15.02;6.72;;;;;;;;;;5107534;28;20024;-61
2023/05/03 01:14:27;;;;;;;8.18;5.68;;;;;;;;;;5107244;28;20023;-61
2023/05/03 01:16:58;;;;;;;14.63;7.23;;;;;;;;;;5107474;28;20095;-60
2023/05/03 01:19:36;;;;;;;19.80;7.87;;;;;;;;;;5093547;28;20038;-60
2023/05/03 01:22:17;;;;;;;11.75;8.00;;;;;;;;;;5114714;28;20529;-61
2023/05/03 01:24:47;;;;;;;11.13;6.07;;;;;;;;;;5116624;28;20061;-61
2023/05/03 01:27:15;;;;;;;11.37;5.97;;;;;;;;;;5098013;28;20555;-60
2023/05/03 01:29:43;;;;;;;10.33;6.97;;;;;;;;;;5115371;28;20494;-61
2023/05/03 01:32:14;;;;;;;11.23;6.47;;;;;;;;;;5111167;28;20027;-61
2023/05/03 01:34:51;;;;;;;12.57;6.63;;;;;;;;;;5111321;28;20027;-60
2023/05/03 01:37:18;;;;;;;8.77;6.13;;;;;;;;;;5093042;28;20030;-60
2023/05/03 01:39:57;;;;;;;13.47;6.80;;;;;;;;;;5111042;28;20115;-60
2023/05/03 01:42:25;;;;;;;7.93;5.00;;;;;;;;;;5116028;28;20099;-61
2023/05/03 01:44:55;;;;;;;9.37;5.10;;;;;;;;;;5116006;28;20456;-60
2023/05/03 01:47:24;;;;;;;8.90;6.17;;;;;;;;;;5115953;28;20015;-60
2023/05/03 01:49:50;;;;;;;11.73;6.63;;;;;;;;;;5115927;28;20028;-61
2023/05/03 01:52:17;;;;;;;9.43;6.40;;;;;;;;;;5114893;28;20437;-60
2023/05/03 01:54:47;;;;;;;11.53;6.57;;;;;;;;;;5092067;28;20024;-60
2023/05/03 01:57:14;;;;;;;9.37;5.77;;;;;;;;;;5092070;28;20030;-60
2023/05/03 01:59:43;;;;;;;9.87;4.83;;;;;;;;;;5092841;28;20031;-58
2023/05/03 02:02:09;;;;;;;7.80;4.73;;;;;;;;;;5092282;28;20024;-60
2023/05/03 02:04:36;;;;;;;10.23;5.80;;;;;;;;;;5097284;28;20023;-61
2023/05/03 02:07:05;;;;;;;5.87;4.67;;;;;;;;;;5114476;28;20040;-60
2023/05/03 02:09:32;;;;;;;8.47;5.67;;;;;;;;;;5097456;28;20119;-60
2023/05/03 02:12:01;;;;;;;7.30;5.33;;;;;;;;;;5114299;28;20043;-61
2023/05/03 02:14:28;;;;;;;7.73;5.67;;;;;;;;;;5097199;28;20062;-60
2023/05/03 02:16:55;;;;;;;8.90;5.43;;;;;;;;;;5110133;28;20023;-61
2023/05/03 02:19:23;;;;;;;8.53;5.33;;;;;;;;;;5092447;28;20031;-60
2023/05/03 02:21:50;;;;;;;6.60;4.87;;;;;;;;;;5092325;28;20037;-60
2023/05/03 02:24:22;;;;;;;6.90;3.90;;;;;;;;;;5091899;28;20084;-61
2023/05/03 02:26:49;;;;;;;9.13;5.23;;;;;;;;;;5114920;28;20019;-60
2023/05/03 02:29:17;;;;;;;11.07;4.63;;;;;;;;;;5096813;28;20032;-60
2023/05/03 02:31:44;;;;;;;12.90;4.20;;;;;;;;;;5096815;28;20034;-60
2023/05/03 02:34:11;;;;;;;15.23;4.97;;;;;;;;;;5114443;28;20122;-60
2023/05/03 02:36:38;;;;;;;9.10;4.90;;;;;;;;;;5115160;28;20031;-60
2023/05/03 02:39:06;;;;;;;5.10;3.93;;;;;;;;;;5091391;28;20051;-61
2023/05/03 02:41:35;;;;;;;20.33;5.43;;;;;;;;;;5109885;28;20072;-60
2023/05/03 02:44:02;;;;;;;9.63;3.87;;;;;;;;;;5109935;28;20382;-60
2023/05/03 02:46:30;;;;;;;8.73;5.47;;;;;;;;;;5109788;28;20517;-60
2023/05/03 02:48:56;;;;;;;6.57;4.40;;;;;;;;;;5113328;28;20496;-60
2023/05/03 02:51:25;;;;;;;11.43;6.07;;;;;;;;;;5114957;28;20028;-60
2023/05/03 02:53:52;;;;;;;11.67;7.00;;;;;;;;;;5096426;28;20442;-61
2023/05/03 02:56:21;;;;;;;15.77;6.17;;;;;;;;;;5114513;28;20085;-60
2023/05/03 02:58:48;;;;;;;11.03;6.93;;;;;;;;;;5114798;28;20034;-60
2023/05/03 03:01:15;;;;;;;17.97;6.17;;;;;;;;;;5110223;28;20131;-60
2023/05/03 03:03:42;;;;;;;10.07;5.90;;;;;;;;;;5109300;28;20028;-60
2023/05/03 03:06:09;;;;;;;10.03;6.57;;;;;;;;;;5109442;28;20039;-60
2023/05/03 03:08:36;;;;;;;22.20;6.03;;;;;;;;;;5109222;28;20035;-60
2023/05/03 03:11:05;;;;;;;21.90;6.83;;;;;;;;;;5112770;28;20081;-60
2023/05/03 03:13:38;;;;;;;12.27;7.17;;;;;;;;;;5114021;28;20027;-60
2023/05/03 03:16:07;;;;;;;9.80;5.90;;;;;;;;;;5112514;28;20096;-60
2023/05/03 03:18:35;;;;;;;15.40;5.70;;;;;;;;;;5114015;28;20028;-60
2023/05/03 03:21:02;;;;;;;6.17;4.60;;;;;;;;;;5114453;28;20370;-60
2023/05/03 03:23:29;;;;;;;7.20;5.33;;;;;;;;;;5091454;28;20115;-61
2023/05/03 03:25:57;;;;;;;13.63;6.73;;;;;;;;;;5108942;28;20081;-61
2023/05/03 03:28:24;;;;;;;7.53;5.83;;;;;;;;;;5108888;28;20028;-60
2023/05/03 03:30:51;;;;;;;14.97;7.77;;;;;;;;;;5090875;28;20031;-60
2023/05/03 03:33:18;;;;;;;11.00;6.33;;;;;;;;;;5111885;28;20390;-60
2023/05/03 03:35:45;;;;;;;11.27;5.90;;;;;;;;;;5114038;28;20020;-60
2023/05/03 03:38:11;;;;;;;9.33;6.30;;;;;;;;;;5113866;28;20530;-60
2023/05/03 03:40:38;;;;;;;10.50;6.30;;;;;;;;;;5113691;28;20023;-60
2023/05/03 03:43:05;;;;;;;8.03;5.57;;;;;;;;;;5113673;28;20059;-60
2023/05/03 03:45:34;;;;;;;9.73;5.97;;;;;;;;;;5109707;28;20024;-60
2023/05/03 03:48:01;;;;;;;8.33;6.33;;;;;;;;;;5108331;28;20031;-60
2023/05/03 03:50:28;;;;;;;7.53;5.20;;;;;;;;;;5108558;28;20098;-60
2023/05/03 03:52:54;;;;;;;13.67;6.50;;;;;;;;;;5108778;28;20027;-60
2023/05/03 03:55:21;;;;;;;16.80;7.97;;;;;;;;;;5110578;28;20486;-60
2023/05/03 03:57:48;;;;;;;10.27;5.83;;;;;;;;;;5113629;28;20378;-59
2023/05/03 04:00:15;;;;;;;14.03;6.53;;;;;;;;;;5113002;28;20470;-59
2023/05/03 04:02:42;;;;;;;10.93;5.80;;;;;;;;;;5113297;28;20037;-60
2023/05/03 04:05:09;;;;;;;9.57;6.23;;;;;;;;;;5113166;28;20074;-60
2023/05/03 04:07:35;;;;;;;8.40;6.33;;;;;;;;;;5110991;28;20020;-61
2023/05/03 04:10:02;;;;;;;9.17;6.30;;;;;;;;;;5108339;28;20067;-60
2023/05/03 04:12:29;;;;;;;15.67;6.97;;;;;;;;;;5108085;28;20027;-60
2023/05/03 04:14:56;;;;;;;8.37;6.17;;;;;;;;;;5089970;28;20028;-60
2023/05/03 04:17:23;;;;;;;7.93;4.93;;;;;;;;;;5109646;28;20023;-60
2023/05/03 04:19:49;;;;;;;9.33;5.97;;;;;;;;;;5112849;28;20045;-60
2023/05/03 04:22:16;;;;;;;10.77;6.53;;;;;;;;;;5113004;28;20416;-60
2023/05/03 04:24:44;;;;;;;7.30;4.80;;;;;;;;;;5113089;28;20050;-59
2023/05/03 04:30:16;;;;;;;7.40;4.47;;;;;;;;;;5110090;28;20090;-60
2023/05/03 04:32:43;;;;;;;6.20;4.33;;;;;;;;;;5107920;28;20426;-60
2023/05/03 04:35:11;;;;;;;7.27;4.60;;;;;;;;;;5107839;28;20072;-59
2023/05/03 04:38:14;;;;;;;11.83;5.73;;;;;;;;;;5107815;28;20435;-60
2023/05/03 04:40:41;;;;;;;16.00;7.90;;;;;;;;;;5110860;28;20112;-60
2023/05/03 04:43:08;;;;;;;14.93;6.53;;;;;;;;;;5112848;28;20389;-60
2023/05/03 04:45:34;;;;;;;10.43;6.30;;;;;;;;;;5113007;28;20374;-59
2023/05/03 04:48:04;;;;;;;20.17;6.60;;;;;;;;;;5112656;28;20020;-60
2023/05/03 04:50:31;;;;;;;7.73;4.33;;;;;;;;;;5112900;28;20205;-60
2023/05/03 04:52:58;;;;;;;6.67;3.90;;;;;;;;;;5109270;28;20024;-59
2023/05/03 04:55:25;;;;;;;8.10;5.37;;;;;;;;;;5107681;28;20027;-60
2023/05/03 04:57:52;;;;;;;6.17;4.83;;;;;;;;;;5111057;28;20047;-59
2023/05/03 05:00:20;;;;;;;7.07;5.60;;;;;;;;;;5111912;28;20020;-60
2023/05/03 05:02:47;;;;;;;22.73;4.83;;;;;;;;;;5114485;28;20382;-59
2023/05/03 05:05:13;;;;;;;8.20;5.40;;;;;;;;;;5116852;28;20023;-60
2023/05/03 05:07:40;;;;;;;12.97;7.23;;;;;;;;;;5117021;28;20039;-60
2023/05/03 05:10:07;;;;;;;9.77;6.30;;;;;;;;;;5116556;28;20035;-60
2023/05/03 05:12:34;;;;;;;6.00;4.50;;;;;;;;;;5116535;28;20024;-59
2023/05/03 05:15:01;;;;;;;9.10;6.03;;;;;;;;;;5113909;28;20024;-60
2023/05/03 05:17:28;;;;;;;12.63;7.37;;;;;;;;;;5111780;28;20038;-60
2023/05/03 05:19:54;;;;;;;9.93;6.23;;;;;;;;;;5111585;28;20072;-60
2023/05/03 05:22:21;;;;;;;8.03;6.10;;;;;;;;;;5111477;28;20106;-60
2023/05/03 05:24:48;;;;;;;9.00;5.70;;;;;;;;;;5113456;28;20374;-59
2023/05/03 05:27:15;;;;;;;9.43;5.40;;;;;;;;;;5098026;28;20020;-59
2023/05/03 05:29:41;;;;;;;7.70;4.90;;;;;;;;;;5116241;28;20027;-59
2023/05/03 05:32:08;;;;;;;12.40;4.40;;;;;;;;;;5115878;28;20439;-59
2023/05/03 05:34:35;;;;;;;8.17;5.67;;;;;;;;;;5116280;28;20034;-59
2023/05/03 05:37:04;;;;;;;8.90;6.53;;;;;;;;;;5114237;28;20031;-59
2023/05/03 05:39:31;;;;;;;11.53;7.17;;;;;;;;;;5111189;28;20027;-60
2023/05/03 05:41:57;;;;;;;9.07;5.70;;;;;;;;;;5111035;28;20031;-60
2023/05/03 05:44:24;;;;;;;12.37;5.43;;;;;;;;;;5110958;28;20076;-59
2023/05/03 05:46:51;;;;;;;8.67;5.47;;;;;;;;;;5112375;28;20073;-60
2023/05/03 05:49:18;;;;;;;6.40;4.80;;;;;;;;;;5115241;28;20035;-59
2023/05/03 05:51:45;;;;;;;12.07;6.50;;;;;;;;;;5116145;28;20019;-59
2023/05/03 05:54:12;;;;;;;7.57;5.10;;;;;;;;;;5116102;28;20030;-60
2023/05/03 05:56:38;;;;;;;5.77;4.63;;;;;;;;;;5116038;28;20469;-59
2023/05/03 05:59:05;;;;;;;9.50;4.17;;;;;;;;;;5114574;28;20052;-60
2023/05/03 06:01:33;;;;;;;7.80;6.20;;;;;;;;;;5110705;28;20440;-60
2023/05/03 06:04:00;;;;;;;7.90;4.67;;;;;;;;;;5110491;28;20031;-59
2023/05/03 06:06:27;;;;;;;7.80;5.20;;;;;;;;;;5110536;28;20084;-61
2023/05/03 06:08:54;;;;;;;7.33;4.00;;;;;;;;;;5109795;28;20386;-60
2023/05/03 06:11:21;;;;;;;11.43;5.97;;;;;;;;;;5115629;28;20673;-60
2023/05/03 06:13:47;;;;;;;6.80;5.10;;;;;;;;;;5115740;28;20054;-59
2023/05/03 06:16:15;;;;;;;8.03;5.20;;;;;;;;;;5115465;28;20023;-59
2023/05/03 06:18:41;;;;;;;11.20;5.00;;;;;;;;;;5115696;28;20020;-59
2023/05/03 06:21:10;;;;;;;14.13;5.27;;;;;;;;;;5114913;28;20020;-60
2023/05/03 06:23:39;;;;;;;14.23;6.73;;;;;;;;;;5110237;28;20497;-60
2023/05/03 06:26:06;;;;;;;8.43;6.50;;;;;;;;;;5110396;28;20049;-59
2023/05/03 06:28:32;;;;;;;7.57;4.53;;;;;;;;;;5109927;28;20081;-60
2023/05/03 06:30:59;;;;;;;9.17;5.60;;;;;;;;;;5110213;28;20115;-60
2023/05/03 06:33:26;;;;;;;7.43;5.50;;;;;;;;;;5115165;28;20024;-59
2023/05/03 06:35:53;;;;;;;6.40;5.03;;;;;;;;;;5115190;28;20055;-59
2023/05/03 06:38:20;;;;;;;6.67;4.20;;;;;;;;;;5115232;28;20490;-59
2023/05/03 06:40:47;;;;;;;10.53;5.73;;;;;;;;;;5114907;28;20028;-59
2023/05/03 06:43:14;;;;;;;8.00;6.10;;;;;;;;;;5114592;28;20031;-59
2023/05/03 06:45:42;;;;;;;13.00;6.90;;;;;;;;;;5109937;28;20023;-60
2023/05/03 06:48:09;;;;;;;6.40;5.43;;;;;;;;;;5109821;28;20047;-59
2023/05/03 06:50:36;;;;;;;9.90;5.27;;;;;;;;;;5109837;28;20062;-59
2023/05/03 06:53:03;;;;;;;11.60;6.53;;;;;;;;;;5109789;28;20103;-59
2023/05/03 06:55:31;;;;;;;20.23;6.87;;;;;;;;;;5113883;28;20020;-60
2023/05/03 06:57:58;;;;;;;11.20;7.03;;;;;;;;;;5114386;28;20031;-59
2023/05/03 07:00:25;;;;;;;11.47;6.57;;;;;;;;;;5114426;28;20091;-59
2023/05/03 07:02:52;;;;;;;12.93;5.77;;;;;;;;;;5114915;28;20420;-59
2023/05/03 07:05:19;;;;;;;16.03;8.33;;;;;;;;;;5115119;28;20442;-59
2023/05/03 07:07:45;;;;;;;13.40;6.67;;;;;;;;;;5109860;28;20500;-60
2023/05/03 07:10:12;;;;;;;19.67;6.77;;;;;;;;;;5109367;28;20385;-59
2023/05/03 07:12:39;;;;;;;15.20;6.63;;;;;;;;;;5109403;28;20094;-59
2023/05/03 07:15:06;;;;;;;7.53;5.20;;;;;;;;;;5109292;28;20026;-59
2023/05/03 07:17:32;;;;;;;13.77;6.60;;;;;;;;;;5112811;28;20509;-59
2023/05/03 07:19:59;;;;;;;15.97;6.73;;;;;;;;;;5113542;28;20020;-59
2023/05/03 07:22:26;;;;;;;11.97;7.20;;;;;;;;;;5114200;28;20462;-59
2023/05/03 07:24:53;;;;;;;11.20;6.60;;;;;;;;;;5114082;28;20020;-59
2023/05/03 07:27:20;;;;;;;10.23;6.37;;;;;;;;;;5114387;28;20445;-59
2023/05/03 07:29:47;;;;;;;25.43;7.97;;;;;;;;;;5110309;28;20077;-59
2023/05/03 07:32:14;;;;;;;9.53;6.60;;;;;;;;;;5108833;28;20027;-60
2023/05/03 07:34:41;;;;;;;9.20;7.17;;;;;;;;;;5108907;28;20032;-59
2023/05/03 07:37:07;;;;;;;21.27;8.43;;;;;;;;;;5108649;28;20420;-59
2023/05/03 07:39:35;;;;;;;9.77;6.90;;;;;;;;;;5111579;28;20107;-59
2023/05/03 07:42:02;;;;;;;10.00;5.27;;;;;;;;;;5113755;28;20131;-59
2023/05/03 07:44:28;;;;;;;8.13;5.77;;;;;;;;;;5113914;28;20366;-59
2023/05/03 07:46:56;;;;;;;8.13;5.60;;;;;;;;;;5113804;28;20051;-60
2023/05/03 07:49:22;;;;;;;14.47;8.90;;;;;;;;;;5113498;28;20084;-59
2023/05/03 07:51:49;;;;;;;6.97;5.27;;;;;;;;;;5110695;28;20102;-59
2023/05/03 07:54:16;;;;;;;10.50;7.77;;;;;;;;;;5108782;28;20031;-59
2023/05/03 07:56:43;;;;;;;9.10;5.90;;;;;;;;;;5108121;28;20096;-59
2023/05/03 07:59:10;;;;;;;9.63;6.13;;;;;;;;;;5108524;28;20031;-59
2023/05/03 08:01:37;;;;;;;13.47;5.73;;;;;;;;;;5110732;28;20031;-59
2023/05/03 08:04:03;;;;;;;9.30;5.57;;;;;;;;;;5113567;28;20027;-59
2023/05/03 08:06:30;;;;;;;8.27;6.73;;;;;;;;;;5113254;28;20031;-57
2023/05/03 08:08:57;;;;;;;10.43;6.73;;;;;;;;;;5113477;28;20114;-57
2023/05/03 08:11:24;;;;;;;9.67;6.20;;;;;;;;;;5113362;28;20031;-57
2023/05/03 08:13:51;;;;;;;10.80;7.23;;;;;;;;;;5110820;28;20106;-57
2023/05/03 08:16:18;;;;;;;13.80;6.80;;;;;;;;;;5108399;28;20023;-57
2023/05/03 08:18:45;;;;;;;24.97;7.10;;;;;;;;;;5108022;28;20107;-57
2023/05/03 08:21:13;;;;;;;8.60;6.17;;;;;;;;;;5107996;28;20119;-57
2023/05/03 08:23:41;;;;;;;16.37;5.60;;;;;;;;;;5109443;28;20024;-57
2023/05/03 08:26:08;;;;;;;8.70;6.13;;;;;;;;;;5113289;28;20370;-57
2023/05/03 08:28:35;;;;;;;9.77;6.67;;;;;;;;;;5112993;28;20496;-57
2023/05/03 08:31:05;;;;;;;9.30;6.53;;;;;;;;;;5112308;28;20023;-58
2023/05/03 08:33:32;;;;;;;10.40;5.77;;;;;;;;;;5113220;28;20068;-57
2023/05/03 08:35:59;;;;;;;30.97;7.53;;;;;;;;;;5111026;28;20116;-58
2023/05/03 08:38:26;;;;;;;9.70;6.07;;;;;;;;;;5108011;28;20137;-57
2023/05/03 08:40:54;;;;;;;6.57;3.83;;;;;;;;;;5107482;28;20061;-57
2023/05/03 08:43:22;;;;;;;32.27;6.73;;;;;;;;;;5107853;28;20031;-57
2023/05/03 08:45:50;;;;;;;10.57;6.77;;;;;;;;;;5108746;28;20047;-57
2023/05/03 08:48:17;;;;;;;14.23;7.33;;;;;;;;;;5112086;28;20059;-58
2023/05/03 08:50:44;;;;;;;8.73;6.73;;;;;;;;;;5112987;28;20023;-57
2023/05/03 08:53:11;;;;;;;24.27;7.83;;;;;;;;;;5112884;28;20019;-58
2023/05/03 08:55:38;;;;;;;7.03;5.63;;;;;;;;;;5112520;28;20047;-57
2023/05/03 08:58:11;;;;;;;6.83;5.23;;;;;;;;;;5111043;28;20031;-57
2023/05/03 09:00:40;;;;;;;17.67;7.83;;;;;;;;;;5107703;28;20031;-57
2023/05/03 09:03:07;;;;;;;23.07;7.97;;;;;;;;;;5107376;28;20028;-57
2023/05/03 09:05:37;;;;;;;11.00;7.43;;;;;;;;;;5107560;28;20470;-57
2023/05/03 09:08:06;;;;;;;16.03;7.07;;;;;;;;;;5108443;28;20470;-58
2023/05/03 09:10:33;;;;;;;9.97;6.17;;;;;;;;;;5112753;28;20039;-57
2023/05/03 09:13:01;;;;;;;8.30;6.57;;;;;;;;;;5112617;28;20026;-57
2023/05/03 09:15:31;;;;;;;8.67;6.53;;;;;;;;;;5112341;28;20055;-57
2023/05/03 09:18:17;;;;;;;8.63;6.33;;;;;;;;;;5112587;28;20084;-57
2023/05/03 09:20:51;;;;;;;19.20;7.77;;;;;;;;;;5110753;28;20028;-58
2023/05/03 09:23:19;;;;;;;8.07;6.43;;;;;;;;;;5107497;28;20024;-57
2023/05/03 09:25:47;;;;;;;10.50;7.40;;;;;;;;;;5107689;28;20348;-58
2023/05/03 09:28:15;;;;;;;11.90;5.90;;;;;;;;;;5107377;28;20478;-57
2023/05/03 09:30:42;;;;;;;7.90;6.07;;;;;;;;;;5108172;28;20016;-57
2023/05/03 09:33:10;;;;;;;9.47;6.37;;;;;;;;;;5112139;28;20067;-57
2023/05/03 09:35:38;;;;;;;11.50;7.10;;;;;;;;;;5112451;28;20035;-57
2023/05/03 09:38:05;;;;;;;11.27;5.67;;;;;;;;;;5112422;28;20064;-57
2023/05/03 09:40:31;;;;;;;13.73;7.23;;;;;;;;;;5112325;28;20085;-57
2023/05/03 09:43:06;;;;;;;9.23;6.40;;;;;;;;;;5112699;28;20102;-58
2023/05/03 09:45:34;;;;;;;14.27;6.67;;;;;;;;;;5110746;28;20397;-58
2023/05/03 09:48:02;;;;;;;8.83;7.27;;;;;;;;;;5111043;28;20028;-57
2023/05/03 09:50:31;;;;;;;10.70;7.80;;;;;;;;;;5110634;28;20036;-57
2023/05/03 09:52:59;;;;;;;9.40;5.33;;;;;;;;;;5112240;28;20066;-57
2023/05/03 09:55:26;;;;;;;26.47;6.53;;;;;;;;;;5115937;28;20098;-57
2023/05/03 09:57:56;;;;;;;7.40;5.03;;;;;;;;;;5115696;28;20042;-57
2023/05/03 10:00:26;;;;;;;10.87;7.67;;;;;;;;;;5115893;28;20011;-57
2023/05/03 10:02:54;;;;;;;9.53;4.57;;;;;;;;;;5115711;28;20099;-57
2023/05/03 10:05:21;;;;;;;9.63;6.03;;;;;;;;;;5114144;28;20043;-57
2023/05/03 10:07:50;;;;;;;13.30;7.07;;;;;;;;;;5110592;28;20024;-57
2023/05/03 10:10:17;;;;;;;14.93;8.27;;;;;;;;;;5110497;28;20032;-57
2023/05/03 10:12:45;;;;;;;7.97;6.10;;;;;;;;;;5110597;28;20035;-58
2023/05/03 10:15:13;;;;;;;8.23;6.20;;;;;;;;;;5111367;28;20023;-57
2023/05/03 10:17:41;;;;;;;8.93;6.87;;;;;;;;;;5115125;28;20023;-57
2023/05/03 10:20:21;;;;;;;6.60;5.33;;;;;;;;;;5115681;28;20024;-57
2023/05/03 10:23:21;;;;;;;9.90;7.67;;;;;;;;;;5115556;28;20489;-57
2023/05/03 10:26:12;;;;;;;13.30;9.50;;;;;;;;;;5059849;28;20042;-58
2023/05/03 10:28:39;;;;;;;26.77;10.97;;;;;;;;;;5111703;28;20031;-57
2023/05/03 10:31:06;;;;;;;10.40;7.57;;;;;;;;;;5110324;28;20024;-57
2023/05/03 10:33:34;;;;;;;12.97;7.07;;;;;;;;;;5109904;28;20028;-57
2023/05/03 10:36:05;;;;;;;9.40;6.60;;;;;;;;;;5109783;28;20020;-57
2023/05/03 10:38:32;;;;;;;14.77;8.30;;;;;;;;;;5112820;28;20026;-58
2023/05/03 10:41:02;;;;;;;9.83;7.40;;;;;;;;;;5114838;28;20115;-57
2023/05/03 10:43:31;;;;;;;13.17;8.80;;;;;;;;;;5114894;28;20101;-57
2023/05/03 10:46:02;;;;;;;12.03;7.47;;;;;;;;;;5115015;28;20474;-57
2023/05/03 10:48:29;;;;;;;15.23;8.07;;;;;;;;;;5114843;28;20027;-57
2023/05/03 10:50:56;;;;;;;9.73;7.60;;;;;;;;;;5111156;28;20051;-57
2023/05/03 10:53:35;;;;;;;10.47;7.53;;;;;;;;;;5109533;28;20028;-57
2023/05/03 10:56:04;;;;;;;12.67;9.03;;;;;;;;;;5109543;28;20035;-57
2023/05/03 10:58:35;;;;;;;12.60;7.97;;;;;;;;;;5109616;28;20015;-58
2023/05/03 11:01:03;;;;;;;12.57;7.70;;;;;;;;;;5112571;28;20028;-57
2023/05/03 11:03:32;;;;;;;12.20;8.17;;;;;;;;;;5114264;28;20016;-57
2023/05/03 11:05:59;;;;;;;8.67;7.17;;;;;;;;;;5114627;28;20073;-57
2023/05/03 11:08:28;;;;;;;10.33;7.27;;;;;;;;;;5114245;28;20073;-57
2023/05/03 11:10:59;;;;;;;10.90;7.60;;;;;;;;;;5114421;28;20063;-57
2023/05/03 11:13:27;;;;;;;8.50;6.37;;;;;;;;;;5110540;28;20058;-57
2023/05/03 11:15:55;;;;;;;8.40;6.33;;;;;;;;;;5109112;28;20019;-57
2023/05/03 11:18:22;;;;;;;10.50;6.93;;;;;;;;;;5108877;28;20540;-57
2023/05/03 11:20:49;;;;;;;11.03;8.00;;;;;;;;;;5090804;28;20378;-57
2023/05/03 11:23:16;;;;;;;11.27;7.43;;;;;;;;;;5112185;28;20564;-57
2023/05/03 11:25:42;;;;;;;14.77;6.50;;;;;;;;;;5114118;28;20019;-57
2023/05/03 11:28:09;;;;;;;12.37;7.73;;;;;;;;;;5114177;28;20049;-57
2023/05/03 11:30:36;;;;;;;10.67;6.60;;;;;;;;;;5114128;28;20028;-57
2023/05/03 11:33:03;;;;;;;10.77;7.87;;;;;;;;;;5113959;28;20030;-57
2023/05/03 11:35:30;;;;;;;8.57;6.00;;;;;;;;;;5110677;28;20031;-57
2023/05/03 11:38:00;;;;;;;8.50;6.97;;;;;;;;;;5108805;28;20489;-57
2023/05/03 11:40:27;;;;;;;10.13;6.80;;;;;;;;;;5108742;28;20437;-57
2023/05/03 11:42:57;;;;;;;20.00;8.30;;;;;;;;;;5108754;28;20028;-57
2023/05/03 11:45:25;;;;;;;9.27;7.70;;;;;;;;;;5111361;28;20044;-57
2023/05/03 11:47:52;;;;;;;10.77;7.80;;;;;;;;;;5113804;28;20489;-57
2023/05/03 11:50:19;;;;;;;11.10;8.10;;;;;;;;;;5113552;28;20537;-57
2023/05/03 11:52:46;;;;;;;10.40;8.17;;;;;;;;;;5113251;28;20088;-57
2023/05/03 11:55:13;;;;;;;16.23;8.33;;;;;;;;;;5113680;28;20020;-58
2023/05/03 11:57:41;;;;;;;7.67;5.37;;;;;;;;;;5110693;28;20068;-58
2023/05/03 12:00:15;;;;;;;12.37;8.10;;;;;;;;;;5108143;28;20084;-57
2023/05/03 12:02:43;;;;;;;10.32;8.52;;;;;;;;;;5108155;28;20032;-57
2023/05/03 12:05:11;;;;;;;22.90;8.10;;;;;;;;;;5108154;28;20486;-57
2023/05/03 12:07:40;;;;;;;14.37;9.27;;;;;;;;;;5109834;28;20034;-57
2023/05/03 12:10:17;;;;;;;14.53;8.10;;;;;;;;;;5113152;28;20035;-57
2023/05/03 12:12:57;;;;;;;10.60;8.57;;;;;;;;;;5113241;28;20016;-57
2023/05/03 12:15:31;;;;;;;14.53;9.10;;;;;;;;;;5113121;28;20011;-57
2023/05/03 12:17:58;;;;;;;10.03;6.77;;;;;;;;;;5112702;28;20077;-57
2023/05/03 12:20:29;;;;;;;10.43;7.73;;;;;;;;;;5109498;28;20100;-57
2023/05/03 12:22:57;;;;;;;9.90;8.33;;;;;;;;;;5107802;28;20035;-57
2023/05/03 12:25:24;;;;;;;17.03;9.93;;;;;;;;;;5107865;28;20474;-57
2023/05/03 12:27:52;;;;;;;15.37;10.10;;;;;;;;;;5107822;28;20019;-58
2023/05/03 12:30:20;;;;;;;14.70;9.07;;;;;;;;;;5110838;28;20049;-57
2023/05/03 12:32:47;;;;;;;17.87;10.50;;;;;;;;;;5112489;28;20031;-57
2023/05/03 12:35:13;;;;;;;11.23;7.93;;;;;;;;;;5112990;28;20374;-57
2023/05/03 12:37:40;;;;;;;13.23;7.03;;;;;;;;;;5112868;28;20172;-57
2023/05/03 12:40:08;;;;;;;25.57;10.33;;;;;;;;;;5112792;28;20035;-57
2023/05/03 12:42:35;;;;;;;12.63;8.50;;;;;;;;;;5109414;28;20104;-58
2023/05/03 12:45:02;;;;;;;12.00;8.13;;;;;;;;;;5107687;28;20121;-57
2023/05/03 12:47:29;;;;;;;17.17;10.77;;;;;;;;;;5107746;28;20034;-57
2023/05/03 12:49:56;;;;;;;18.33;11.17;;;;;;;;;;5107343;28;20035;-58
2023/05/03 12:52:22;;;;;;;15.43;9.77;;;;;;;;;;5110157;28;20095;-57
2023/05/03 12:54:49;;;;;;;12.83;9.83;;;;;;;;;;5113006;28;20063;-57
2023/05/03 12:57:16;;;;;;;11.50;8.13;;;;;;;;;;5112688;28;20095;-57
2023/05/03 12:59:44;;;;;;;12.03;9.47;;;;;;;;;;5112559;28;20024;-58
2023/05/03 13:02:12;;;;;;;12.17;9.50;;;;;;;;;;5112652;28;20118;-57
2023/05/03 13:04:39;;;;;;;14.53;8.67;;;;;;;;;;5109646;28;20036;-58
2023/05/03 13:07:06;;;;;;;12.00;8.60;;;;;;;;;;5107403;28;20058;-58
2023/05/03 13:09:33;;;;;;;15.90;10.43;;;;;;;;;;5107286;28;20028;-57
2023/05/03 13:12:01;;;;;;;15.60;11.07;;;;;;;;;;5107546;28;20418;-57
2023/05/03 13:14:28;;;;;;;13.73;9.67;;;;;;;;;;5109222;28;20059;-57
2023/05/03 13:16:54;;;;;;;8.47;6.10;;;;;;;;;;5112595;28;20358;-57
2023/05/03 13:19:21;;;;;;;12.90;9.97;;;;;;;;;;5116649;28;20081;-57
2023/05/03 13:21:48;;;;;;;11.00;8.80;;;;;;;;;;5116619;28;20028;-57
2023/05/03 13:24:15;;;;;;;14.00;8.57;;;;;;;;;;5116273;28;20030;-57
2023/05/03 13:26:42;;;;;;;14.70;9.80;;;;;;;;;;5113992;28;20020;-58
2023/05/03 13:29:09;;;;;;;19.60;10.70;;;;;;;;;;5111217;28;20449;-57
2023/05/03 13:31:35;;;;;;;15.90;11.67;;;;;;;;;;5111200;28;20028;-57
2023/05/03 13:34:02;;;;;;;18.90;10.70;;;;;;;;;;5110946;28;20081;-58
2023/05/03 13:36:32;;;;;;;14.33;9.97;;;;;;;;;;5112613;28;20016;-57
2023/05/03 13:39:00;;;;;;;14.50;8.90;;;;;;;;;;5116092;28;20024;-58
2023/05/03 13:41:27;;;;;;;15.10;10.77;;;;;;;;;;5115746;28;20385;-57
2023/05/03 13:43:54;;;;;;;12.70;8.97;;;;;;;;;;5116072;28;20016;-57
2023/05/03 13:46:22;;;;;;;12.13;9.03;;;;;;;;;;5116048;28;20106;-57
2023/05/03 13:48:48;;;;;;;12.70;8.23;;;;;;;;;;5114039;28;20035;-58
2023/05/03 13:51:15;;;;;;;10.07;7.63;;;;;;;;;;5110872;28;20413;-58
2023/05/03 13:53:43;;;;;;;17.50;9.57;;;;;;;;;;5110923;28;20024;-57
2023/05/03 13:56:10;;;;;;;10.70;7.70;;;;;;;;;;5110628;28;20034;-58
2023/05/03 13:58:38;;;;;;;12.83;8.80;;;;;;;;;;5111168;28;20480;-57
2023/05/03 14:01:06;;;;;;;16.43;9.77;;;;;;;;;;5115678;28;20073;-58
2023/05/03 14:03:32;;;;;;;15.23;7.67;;;;;;;;;;5115747;28;20114;-57
2023/05/03 14:05:59;;;;;;;11.23;6.93;;;;;;;;;;5115639;28;20023;-57
2023/05/03 14:08:26;;;;;;;9.23;7.60;;;;;;;;;;5115167;28;20420;-58
2023/05/03 14:10:53;;;;;;;10.20;7.37;;;;;;;;;;5114584;28;20377;-58
2023/05/03 14:13:20;;;;;;;11.20;8.07;;;;;;;;;;5110371;28;20051;-58
2023/05/03 14:15:47;;;;;;;11.70;8.40;;;;;;;;;;5109857;28;20031;-58
2023/05/03 14:18:14;;;;;;;11.40;8.43;;;;;;;;;;5110333;28;20106;-58
2023/05/03 14:20:41;;;;;;;17.07;7.67;;;;;;;;;;5110778;28;20019;-58
2023/05/03 14:23:07;;;;;;;11.10;7.33;;;;;;;;;;5115186;28;20023;-58
2023/05/03 14:25:35;;;;;;;14.83;7.83;;;;;;;;;;5115087;28;20024;-58
2023/05/03 14:28:02;;;;;;;13.37;7.73;;;;;;;;;;5115008;28;20105;-58
2023/05/03 14:30:29;;;;;;;28.93;8.87;;;;;;;;;;5114057;28;20055;-58
2023/05/03 14:32:58;;;;;;;7.30;5.57;;;;;;;;;;5114276;28;20020;-58
2023/05/03 14:35:25;;;;;;;15.83;7.63;;;;;;;;;;5110088;28;20535;-58
2023/05/03 14:37:51;;;;;;;12.50;9.13;;;;;;;;;;5110052;28;20681;-60
2023/05/03 14:40:19;;;;;;;12.90;7.67;;;;;;;;;;5109805;28;20047;-60
2023/05/03 14:42:47;;;;;;;20.00;8.97;;;;;;;;;;5109646;28;20024;-61